Terminal Aerodrome Forecast
Issued by NWS

Home | Current Version | Previous Version | Text Only | Print | Product List | Glossary Off
Versions: 1 2 3 4 5 6 7 8 9 10 11 12 13

000
FTUS43 KFGF 141700
TAFBJI
TAF
KBJI 141720Z 1418/1518 28010KT P6SM BKN012
      TEMPO 1418/1421 BKN025
     FM142100 29012KT P6SM BKN050
     FM150100 29003KT P6SM SCT050
     FM151100 29005KT P6SM SCT050=

USA.gov is the U.S. government's official web portal to all federal, state and local government web resources and services.